createdAt,value
2018-03-25T00:00:04.026Z,73.26
2018-03-25T00:02:32.434Z,73.18
2018-03-25T00:05:00.890Z,73.21
2018-03-25T00:07:29.297Z,73.06
2018-03-25T00:09:57.706Z,73.76
2018-03-25T00:12:26.173Z,73.39
2018-03-25T00:14:54.577Z,73.30
2018-03-25T00:17:22.981Z,73.61
2018-03-25T00:19:51.565Z,73.74
2018-03-25T00:22:19.973Z,74.20
2018-03-25T00:24:48.382Z,74.18
2018-03-25T00:27:16.857Z,74.04
2018-03-25T00:29:45.269Z,74.59
2018-03-25T00:32:13.673Z,74.16
2018-03-25T00:34:42.312Z,73.54
2018-03-25T00:37:10.722Z,73.82
2018-03-25T00:39:39.134Z,74.12
2018-03-25T00:42:07.615Z,73.55
2018-03-25T00:44:36.021Z,73.16
2018-03-25T00:47:04.431Z,73.26
2018-03-25T00:49:32.886Z,73.49
2018-03-25T00:52:01.299Z,73.46
2018-03-25T00:54:29.707Z,73.64
2018-03-25T00:56:58.195Z,73.57
2018-03-25T00:59:26.604Z,73.57
2018-03-25T01:01:55.034Z,73.64
2018-03-25T01:04:23.507Z,73.63
2018-03-25T01:06:51.909Z,73.92
2018-03-25T01:09:20.313Z,74.08
2018-03-25T01:11:48.769Z,73.83
2018-03-25T01:14:17.178Z,74.30
2018-03-25T01:16:45.591Z,74.41
2018-03-25T01:19:14.053Z,74.74
2018-03-25T01:21:42.474Z,75.55
2018-03-25T01:24:10.890Z,75.90
2018-03-25T01:26:39.346Z,75.95
2018-03-25T01:29:07.758Z,76.25
2018-03-25T01:31:36.174Z,76.02
2018-03-25T01:34:04.641Z,76.50
2018-03-25T01:36:33.052Z,76.10
2018-03-25T01:39:01.462Z,76.99
2018-03-25T01:41:29.905Z,76.88
2018-03-25T01:43:58.316Z,76.98
2018-03-25T01:46:26.725Z,77.55
2018-03-25T01:48:55.174Z,77.40
2018-03-25T01:51:23.581Z,77.04
2018-03-25T01:53:51.990Z,77.05
2018-03-25T01:56:20.605Z,77.03
2018-03-25T01:58:49.009Z,77.26
2018-03-25T02:01:17.414Z,76.06
2018-03-25T02:03:45.878Z,76.30
2018-03-25T02:06:14.279Z,76.27
2018-03-25T02:08:42.682Z,76.12
2018-03-25T02:11:11.126Z,76.06
2018-03-25T02:13:39.537Z,76.52
2018-03-25T02:16:07.942Z,75.91
2018-03-25T02:18:36.394Z,75.93
2018-03-25T02:21:04.821Z,75.91
2018-03-25T02:23:33.230Z,75.85
2018-03-25T02:26:01.997Z,75.96
2018-03-25T02:28:30.414Z,76.18
2018-03-25T02:30:58.827Z,75.75
2018-03-25T02:33:27.284Z,76.13
2018-03-25T02:35:55.694Z,76.09
2018-03-25T02:38:24.099Z,76.43
2018-03-25T02:40:52.555Z,76.89
2018-03-25T02:43:20.973Z,77.41
2018-03-25T02:45:49.398Z,77.04
2018-03-25T02:48:17.881Z,76.90
2018-03-25T02:50:46.288Z,76.78
2018-03-25T02:53:14.689Z,76.66
2018-03-25T02:55:43.214Z,76.40
2018-03-25T02:58:11.645Z,76.42
2018-03-25T03:00:40.054Z,76.63
2018-03-25T03:03:08.526Z,76.65
2018-03-25T03:05:36.934Z,77.11
2018-03-25T03:08:05.341Z,76.96
2018-03-25T03:10:33.805Z,76.81
2018-03-25T03:13:02.229Z,76.89
2018-03-25T03:15:30.646Z,76.67
2018-03-25T03:17:59.110Z,76.54
2018-03-25T03:20:27.517Z,76.82
2018-03-25T03:22:55.928Z,76.72
2018-03-25T03:25:24.414Z,76.65
2018-03-25T03:27:52.821Z,76.87
2018-03-25T03:30:21.222Z,77.04
2018-03-25T03:32:49.693Z,77.13
2018-03-25T03:35:18.104Z,77.07
2018-03-25T03:37:46.512Z,77.03
2018-03-25T03:40:14.975Z,77.14
2018-03-25T03:42:43.394Z,77.02
2018-03-25T03:45:11.796Z,77.40
2018-03-25T03:47:40.263Z,78.42
2018-03-25T03:50:08.690Z,78.17
2018-03-25T03:52:37.097Z,78.42
2018-03-25T03:55:05.573Z,79.11
2018-03-25T03:57:34.018Z,79.34
2018-03-25T04:00:02.466Z,79.89
2018-03-25T04:02:30.950Z,80.07
2018-03-25T04:04:59.406Z,80.67
2018-03-25T04:07:27.809Z,80.76
2018-03-25T04:09:56.561Z,81.23
2018-03-25T04:12:24.968Z,81.26
2018-03-25T04:14:53.369Z,81.87
2018-03-25T04:17:21.834Z,82.20
2018-03-25T04:19:50.245Z,82.20
2018-03-25T04:22:18.665Z,82.26
2018-03-25T04:24:47.122Z,82.25
2018-03-25T04:27:15.537Z,82.22
2018-03-25T04:29:43.945Z,82.26
2018-03-25T04:32:12.399Z,82.12
2018-03-25T04:34:40.814Z,82.09
2018-03-25T04:37:09.225Z,81.81
2018-03-25T04:39:37.679Z,81.54
2018-03-25T04:42:06.106Z,81.50
2018-03-25T04:44:34.510Z,81.54
2018-03-25T04:47:02.965Z,81.19
2018-03-25T04:49:31.387Z,81.19
2018-03-25T04:51:59.794Z,81.39
2018-03-25T04:54:28.310Z,81.70
2018-03-25T04:56:56.718Z,81.55
2018-03-25T04:59:25.151Z,81.01
2018-03-25T05:01:53.618Z,81.04
2018-03-25T05:04:22.021Z,80.85
2018-03-25T05:06:50.430Z,80.77
2018-03-25T05:09:18.876Z,80.88
2018-03-25T05:11:47.303Z,80.96
2018-03-25T05:14:15.707Z,81.01
2018-03-25T05:16:44.418Z,80.91
2018-03-25T05:19:12.834Z,81.33
2018-03-25T05:21:41.240Z,81.40
2018-03-25T05:24:09.689Z,81.49
2018-03-25T05:26:38.094Z,81.79
2018-03-25T05:29:06.501Z,81.92
2018-03-25T05:31:34.981Z,81.68
2018-03-25T05:34:03.432Z,81.69
2018-03-25T05:36:31.826Z,81.56
2018-03-25T05:39:00.293Z,81.26
2018-03-25T05:41:28.699Z,81.27
2018-03-25T05:43:57.110Z,81.47
2018-03-25T05:46:25.582Z,81.65
2018-03-25T05:48:53.999Z,81.59
2018-03-25T05:51:22.455Z,81.67
2018-03-25T05:53:50.906Z,81.07
2018-03-25T05:56:19.313Z,80.73
2018-03-25T05:58:47.730Z,80.88
2018-03-25T06:01:16.189Z,80.89
2018-03-25T06:03:44.606Z,80.92
2018-03-25T06:06:13.017Z,81.22
2018-03-25T06:08:41.477Z,80.72
2018-03-25T06:11:09.881Z,80.93
2018-03-25T06:13:38.290Z,80.57
2018-03-25T06:16:06.746Z,80.58
2018-03-25T06:18:35.229Z,80.89
2018-03-25T06:21:03.658Z,80.92
2018-03-25T06:23:32.286Z,80.66
2018-03-25T06:26:00.697Z,80.81
2018-03-25T06:28:29.126Z,80.81
2018-03-25T06:30:57.593Z,80.68
2018-03-25T06:33:25.997Z,80.70
2018-03-25T06:35:54.406Z,80.63
2018-03-25T06:38:22.856Z,80.36
2018-03-25T06:40:51.264Z,79.75
2018-03-25T06:43:19.669Z,79.69
2018-03-25T06:45:48.130Z,79.67
2018-03-25T06:48:16.536Z,79.71
2018-03-25T06:50:44.946Z,79.41
2018-03-25T06:53:13.414Z,79.55
2018-03-25T06:55:41.818Z,79.71
2018-03-25T06:58:10.227Z,79.58
2018-03-25T07:00:38.681Z,79.72
2018-03-25T07:03:07.098Z,79.52
2018-03-25T07:05:35.538Z,79.62
2018-03-25T07:08:04.006Z,79.58
2018-03-25T07:10:32.422Z,79.60
2018-03-25T07:13:00.827Z,79.27
2018-03-25T07:15:29.294Z,79.09
2018-03-25T07:17:57.704Z,78.94
2018-03-25T07:20:26.113Z,78.10
2018-03-25T07:22:54.569Z,78.23
2018-03-25T07:25:22.973Z,78.35
2018-03-25T07:27:51.465Z,78.16
2018-03-25T07:30:19.919Z,78.26
2018-03-25T07:32:48.325Z,78.61
2018-03-25T07:35:16.729Z,78.81
2018-03-25T07:37:45.211Z,78.22
2018-03-25T07:40:13.621Z,77.92
2018-03-25T07:42:42.025Z,78.08
2018-03-25T07:45:10.498Z,78.70
2018-03-25T07:47:38.922Z,78.26
2018-03-25T07:50:07.343Z,78.16
2018-03-25T07:52:35.825Z,78.03
2018-03-25T07:55:04.259Z,77.49
2018-03-25T07:57:32.670Z,77.78
2018-03-25T08:00:01.141Z,77.98
2018-03-25T08:02:29.550Z,78.01
2018-03-25T08:04:57.961Z,77.32
2018-03-25T08:07:26.427Z,78.25
2018-03-25T08:09:54.854Z,78.08
2018-03-25T08:12:23.262Z,77.10
2018-03-25T08:14:51.714Z,78.01
2018-03-25T08:17:20.122Z,77.91
2018-03-25T08:19:48.526Z,78.31
2018-03-25T08:22:16.997Z,77.91
2018-03-25T08:24:45.402Z,77.69
2018-03-25T08:27:13.810Z,77.59
2018-03-25T08:29:42.262Z,77.52
2018-03-25T08:32:10.666Z,77.56
2018-03-25T08:34:39.094Z,100.00
2018-03-25T08:37:07.573Z,100.00
2018-03-25T08:39:36.010Z,100.00
2018-03-25T08:42:04.490Z,100.00
2018-03-25T08:44:32.990Z,100.00
2018-03-25T08:47:01.435Z,100.00
2018-03-25T08:49:29.874Z,100.00
2018-03-25T08:51:58.370Z,100.00
2018-03-25T08:54:26.803Z,56.76
2018-03-25T08:56:55.242Z,100.00
2018-03-25T08:59:23.762Z,100.00
2018-03-25T09:01:52.181Z,74.83
2018-03-25T09:04:20.609Z,100.00
2018-03-25T09:06:49.093Z,74.73
2018-03-25T09:09:17.523Z,100.00
2018-03-25T09:11:45.962Z,100.00
2018-03-25T09:14:14.465Z,100.00
2018-03-25T09:16:42.914Z,100.00
2018-03-25T09:19:11.350Z,100.00
2018-03-25T09:21:39.829Z,100.00
2018-03-25T09:24:08.247Z,71.63
2018-03-25T09:26:36.677Z,100.00
2018-03-25T09:29:05.177Z,100.00
2018-03-25T09:31:33.619Z,100.00
2018-03-25T09:34:02.059Z,100.00
2018-03-25T09:36:30.545Z,100.00
2018-03-25T09:38:58.977Z,100.00
2018-03-25T09:41:27.414Z,100.00
2018-03-25T09:43:55.919Z,100.00
2018-03-25T09:46:24.364Z,100.00
2018-03-25T09:48:52.806Z,100.00
2018-03-25T09:51:21.289Z,100.00
2018-03-25T09:53:49.734Z,100.00
2018-03-25T09:56:18.169Z,100.00
2018-03-25T09:58:46.703Z,100.00
2018-03-25T10:01:15.167Z,100.00
2018-03-25T10:03:43.608Z,100.00
2018-03-25T10:06:12.090Z,100.00
2018-03-25T10:08:40.562Z,100.00
2018-03-25T10:11:08.997Z,100.00
2018-03-25T10:13:37.503Z,100.00
2018-03-25T10:16:05.965Z,100.00
2018-03-25T10:18:34.402Z,100.00
2018-03-25T10:21:03.424Z,100.00
2018-03-25T10:23:31.861Z,100.00
2018-03-25T10:26:00.288Z,50.39
2018-03-25T10:28:28.763Z,100.00
2018-03-25T10:30:57.205Z,100.00
2018-03-25T10:33:25.637Z,100.00
2018-03-25T10:35:54.138Z,100.00
2018-03-25T10:38:22.566Z,50.24
2018-03-25T10:40:51.039Z,50.34
2018-03-25T10:43:19.498Z,48.90
2018-03-25T10:45:47.929Z,52.20
2018-03-25T10:48:16.346Z,48.60
2018-03-25T10:50:44.794Z,48.18
2018-03-25T10:53:13.203Z,46.98
2018-03-25T10:55:41.625Z,47.55
2018-03-25T10:58:10.095Z,47.02
2018-03-25T11:00:38.510Z,49.08
2018-03-25T11:03:06.922Z,48.83
2018-03-25T11:05:35.393Z,50.06
2018-03-25T11:08:03.838Z,49.41
2018-03-25T11:10:32.254Z,49.39
2018-03-25T11:13:00.710Z,47.61
2018-03-25T11:15:29.119Z,48.71
2018-03-25T11:17:57.529Z,50.06
2018-03-25T11:20:25.983Z,49.94
2018-03-25T11:22:54.418Z,47.92
2018-03-25T11:25:22.837Z,49.33
2018-03-25T11:27:51.313Z,47.18
2018-03-25T11:30:19.724Z,48.74
2018-03-25T11:32:48.132Z,47.96
2018-03-25T11:35:16.594Z,46.73
2018-03-25T11:37:45.006Z,44.19
2018-03-25T11:40:13.471Z,45.54
2018-03-25T11:42:42.308Z,45.33
2018-03-25T11:45:10.730Z,45.76
2018-03-25T11:47:39.140Z,45.33
2018-03-25T11:50:07.630Z,45.37
2018-03-25T11:52:36.046Z,45.97
2018-03-25T11:55:04.490Z,45.65
2018-03-25T11:57:32.979Z,44.97
2018-03-25T12:00:01.390Z,44.71
2018-03-25T12:02:29.808Z,45.48
2018-03-25T12:04:58.266Z,46.30
2018-03-25T12:07:26.677Z,46.68
2018-03-25T12:09:55.087Z,45.90
2018-03-25T12:12:23.549Z,45.32
2018-03-25T12:14:51.989Z,44.97
2018-03-25T12:17:20.431Z,42.70
2018-03-25T12:19:48.906Z,45.01
2018-03-25T12:22:17.326Z,42.52
2018-03-25T12:24:45.738Z,43.75
2018-03-25T12:27:14.234Z,43.63
2018-03-25T12:29:42.656Z,42.55
2018-03-25T12:32:11.066Z,42.43
2018-03-25T12:34:39.557Z,43.63
2018-03-25T12:37:07.974Z,43.44
2018-03-25T12:39:36.388Z,43.88
2018-03-25T12:42:05.230Z,42.87
2018-03-25T12:44:33.650Z,43.06
2018-03-25T12:47:02.066Z,45.65
2018-03-25T12:49:30.521Z,45.57
2018-03-25T12:51:58.937Z,45.51
2018-03-25T12:54:27.350Z,45.98
2018-03-25T12:56:55.813Z,44.90
2018-03-25T12:59:24.226Z,46.22
2018-03-25T13:01:52.641Z,46.75
2018-03-25T13:04:21.106Z,45.46
2018-03-25T13:06:49.523Z,44.91
2018-03-25T13:09:17.937Z,47.60
2018-03-25T13:11:46.422Z,46.10
2018-03-25T13:14:14.839Z,44.58
2018-03-25T13:16:43.258Z,43.89
2018-03-25T13:19:11.718Z,43.63
2018-03-25T13:21:40.173Z,43.00
2018-03-25T13:24:08.586Z,42.93
2018-03-25T13:26:37.041Z,45.66
2018-03-25T13:29:05.493Z,45.66
2018-03-25T13:31:33.901Z,45.34
2018-03-25T13:34:02.399Z,46.92
2018-03-25T13:36:30.865Z,45.79
2018-03-25T13:38:59.282Z,43.90
2018-03-25T13:41:27.737Z,44.92
2018-03-25T13:43:56.149Z,45.20
2018-03-25T13:46:24.570Z,44.48
2018-03-25T13:48:53.062Z,45.24
2018-03-25T13:51:21.474Z,45.00
2018-03-25T13:53:49.918Z,45.04
2018-03-25T13:56:18.394Z,45.21
2018-03-25T13:58:46.809Z,44.77
2018-03-25T14:01:15.230Z,45.35
2018-03-25T14:03:43.685Z,45.51
2018-03-25T14:06:12.115Z,44.92
2018-03-25T14:08:40.526Z,44.76
2018-03-25T14:11:08.997Z,45.11
2018-03-25T14:13:37.410Z,44.20
2018-03-25T14:16:05.837Z,44.56
2018-03-25T14:18:34.294Z,45.64
2018-03-25T14:21:02.713Z,45.70
2018-03-25T14:23:31.130Z,45.46
2018-03-25T14:25:59.594Z,45.81
2018-03-25T14:28:28.010Z,46.39
2018-03-25T14:30:56.422Z,44.83
2018-03-25T14:33:24.906Z,45.30
2018-03-25T14:35:53.321Z,44.53
2018-03-25T14:38:21.738Z,45.13
2018-03-25T14:40:50.216Z,47.23
2018-03-25T14:43:18.630Z,48.34
2018-03-25T14:45:47.046Z,45.58
2018-03-25T14:48:15.502Z,45.94
2018-03-25T14:50:43.918Z,44.96
2018-03-25T14:53:12.329Z,46.59
2018-03-25T14:55:40.799Z,44.91
2018-03-25T14:58:09.214Z,44.56
2018-03-25T15:00:37.630Z,45.40
2018-03-25T15:03:06.106Z,45.61
2018-03-25T15:05:34.526Z,46.75
2018-03-25T15:08:03.015Z,48.12
2018-03-25T15:10:31.474Z,48.04
2018-03-25T15:12:59.886Z,48.41
2018-03-25T15:15:28.333Z,47.78
2018-03-25T15:17:57.504Z,48.06
2018-03-25T15:20:25.921Z,46.30
2018-03-25T15:22:54.343Z,45.82
2018-03-25T15:25:22.802Z,45.82
2018-03-25T15:27:51.217Z,46.62
2018-03-25T15:30:19.631Z,47.33
2018-03-25T15:32:48.101Z,46.64
2018-03-25T15:35:16.515Z,46.61
2018-03-25T15:37:44.963Z,46.73
2018-03-25T15:40:13.429Z,46.51
2018-03-25T15:42:41.854Z,46.07
2018-03-25T15:45:10.262Z,45.81
2018-03-25T15:47:38.734Z,46.40
2018-03-25T15:50:07.151Z,47.24
2018-03-25T15:52:35.565Z,47.13
2018-03-25T15:55:04.049Z,47.47
2018-03-25T15:57:32.465Z,46.78
2018-03-25T16:00:00.883Z,46.92
2018-03-25T16:02:29.369Z,47.81
2018-03-25T16:04:57.785Z,47.08
2018-03-25T16:07:26.204Z,48.62
2018-03-25T16:09:54.657Z,48.15
2018-03-25T16:12:23.074Z,47.85
2018-03-25T16:14:51.495Z,48.08
2018-03-25T16:17:19.971Z,49.27
2018-03-25T16:19:48.386Z,49.34
2018-03-25T16:22:16.805Z,48.53
2018-03-25T16:24:45.262Z,50.39
2018-03-25T16:27:13.674Z,50.06
2018-03-25T16:29:42.082Z,50.80
2018-03-25T16:32:10.541Z,51.62
2018-03-25T16:34:38.958Z,50.86
2018-03-25T16:37:07.382Z,49.15
2018-03-25T16:39:35.850Z,50.21
2018-03-25T16:42:04.290Z,50.42
2018-03-25T16:44:32.706Z,52.14
2018-03-25T16:47:01.157Z,51.40
2018-03-25T16:49:29.574Z,51.19
2018-03-25T16:51:57.986Z,50.81
2018-03-25T16:54:26.441Z,50.29
2018-03-25T16:56:54.866Z,50.59
2018-03-25T16:59:23.279Z,51.20
2018-03-25T17:01:51.754Z,51.18
2018-03-25T17:04:20.169Z,51.97
2018-03-25T17:06:48.586Z,51.43
2018-03-25T17:09:17.038Z,52.80
2018-03-25T17:11:45.449Z,52.55
2018-03-25T17:14:13.858Z,52.77
2018-03-25T17:16:42.330Z,54.13
2018-03-25T17:19:10.746Z,53.96
2018-03-25T17:21:39.158Z,54.05
2018-03-25T17:24:07.774Z,54.46
2018-03-25T17:26:36.229Z,55.12
2018-03-25T17:29:04.650Z,56.89
2018-03-25T17:31:33.098Z,55.68
2018-03-25T17:34:01.536Z,56.05
2018-03-25T17:36:29.971Z,56.04
2018-03-25T17:38:58.434Z,56.07
2018-03-25T17:41:26.846Z,56.59
2018-03-25T17:43:55.249Z,56.27
2018-03-25T17:46:23.718Z,56.12
2018-03-25T17:48:52.122Z,56.36
2018-03-25T17:51:20.528Z,56.45
2018-03-25T17:53:48.986Z,56.89
2018-03-25T17:56:17.402Z,56.39
2018-03-25T17:58:45.814Z,56.42
2018-03-25T18:01:14.270Z,56.90
2018-03-25T18:03:42.677Z,56.45
2018-03-25T18:06:11.085Z,56.05
2018-03-25T18:08:39.537Z,55.88
2018-03-25T18:11:07.946Z,56.85
2018-03-25T18:13:36.358Z,56.55
2018-03-25T18:16:04.860Z,56.04
2018-03-25T18:18:33.262Z,55.77
2018-03-25T18:21:01.670Z,56.14
2018-03-25T18:23:30.137Z,55.74
2018-03-25T18:25:58.625Z,55.47
2018-03-25T18:28:26.993Z,55.01
2018-03-25T18:30:55.533Z,55.65
2018-03-25T18:33:23.918Z,55.74
2018-03-25T18:35:52.400Z,55.84
2018-03-25T18:38:20.855Z,56.28
2018-03-25T18:40:49.262Z,56.46
2018-03-25T18:43:17.673Z,56.55
2018-03-25T18:45:46.133Z,56.98
2018-03-25T18:48:14.566Z,57.27
2018-03-25T18:50:42.982Z,57.40
2018-03-25T18:53:11.447Z,57.14
2018-03-25T18:55:39.863Z,57.45
2018-03-25T18:58:08.271Z,57.59
2018-03-25T19:00:36.722Z,58.00
2018-03-25T19:03:06.059Z,57.96
2018-03-25T19:05:34.466Z,58.13
2018-03-25T19:08:02.938Z,58.23
2018-03-25T19:10:31.350Z,57.98
2018-03-25T19:12:59.829Z,58.15
2018-03-25T19:15:28.278Z,58.71
2018-03-25T19:17:56.685Z,59.76
2018-03-25T19:20:25.098Z,61.59
2018-03-25T19:22:53.567Z,61.67
2018-03-25T19:25:21.974Z,60.85
2018-03-25T19:27:50.403Z,61.03
2018-03-25T19:30:18.867Z,60.99
2018-03-25T19:32:47.274Z,60.88
2018-03-25T19:35:15.825Z,60.81
2018-03-25T19:37:44.293Z,60.85
2018-03-25T19:40:12.709Z,61.03
2018-03-25T19:42:41.125Z,60.21
2018-03-25T19:45:09.727Z,60.18
2018-03-25T19:47:38.133Z,60.16
2018-03-25T19:50:06.578Z,60.17
2018-03-25T19:52:35.029Z,60.40
2018-03-25T19:55:03.568Z,59.91
2018-03-25T19:57:31.974Z,59.20
2018-03-25T20:00:00.428Z,59.57
2018-03-25T20:02:28.838Z,59.86
2018-03-25T20:04:57.250Z,59.96
2018-03-25T20:07:25.705Z,59.64
2018-03-25T20:09:54.112Z,59.84
2018-03-25T20:12:22.518Z,59.60
2018-03-25T20:14:50.987Z,60.27
2018-03-25T20:17:19.411Z,60.18
2018-03-25T20:19:47.821Z,60.47
2018-03-25T20:22:16.343Z,60.21
2018-03-25T20:24:44.730Z,60.21
2018-03-25T20:27:13.137Z,60.31
2018-03-25T20:29:41.585Z,60.66
2018-03-25T20:32:09.990Z,60.06
2018-03-25T20:34:38.402Z,60.23
2018-03-25T20:37:06.892Z,59.82
2018-03-25T20:39:35.298Z,59.33
2018-03-25T20:42:03.733Z,59.86
2018-03-25T20:44:32.198Z,60.16
2018-03-25T20:47:00.606Z,60.08
2018-03-25T20:49:29.010Z,60.44
2018-03-25T20:51:57.595Z,60.67
2018-03-25T20:54:26.005Z,60.18
2018-03-25T20:56:54.415Z,60.29
2018-03-25T20:59:22.878Z,59.81
2018-03-25T21:01:51.289Z,60.00
2018-03-25T21:04:19.702Z,60.23
2018-03-25T21:06:48.149Z,59.85
2018-03-25T21:09:16.558Z,59.69
2018-03-25T21:11:44.961Z,58.61
2018-03-25T21:14:13.421Z,58.36
2018-03-25T21:16:41.829Z,58.14
2018-03-25T21:19:10.239Z,57.61
2018-03-25T21:21:38.706Z,58.30
2018-03-25T21:24:07.258Z,58.26
2018-03-25T21:26:35.670Z,58.51
2018-03-25T21:29:03.553Z,58.41
2018-03-25T21:31:31.957Z,58.03
2018-03-25T21:34:00.364Z,58.39
2018-03-25T21:36:28.835Z,58.61
2018-03-25T21:38:57.242Z,58.99
2018-03-25T21:41:25.667Z,58.21
2018-03-25T21:43:54.134Z,58.28
2018-03-25T21:46:22.540Z,58.70
2018-03-25T21:48:50.942Z,58.52
2018-03-25T21:51:19.393Z,58.96
2018-03-25T21:53:47.798Z,61.21
2018-03-25T21:56:16.214Z,63.10
2018-03-25T21:58:44.677Z,63.05
2018-03-25T22:01:13.089Z,63.45
2018-03-25T22:03:41.501Z,63.05
2018-03-25T22:06:09.961Z,61.62
2018-03-25T22:08:38.370Z,60.74
2018-03-25T22:11:06.779Z,60.27
2018-03-25T22:13:35.233Z,60.48
2018-03-25T22:16:03.681Z,60.53
2018-03-25T22:18:32.128Z,60.49
2018-03-25T22:21:00.593Z,59.96
2018-03-25T22:23:28.993Z,60.20
2018-03-25T22:25:57.402Z,60.22
2018-03-25T22:28:25.850Z,60.73
2018-03-25T22:30:54.252Z,60.72
2018-03-25T22:33:22.659Z,61.09
2018-03-25T22:35:51.116Z,61.96
2018-03-25T22:38:19.536Z,61.71
2018-03-25T22:40:47.942Z,61.73
2018-03-25T22:43:16.406Z,61.38
2018-03-25T22:45:44.809Z,61.68
2018-03-25T22:48:13.217Z,61.72
2018-03-25T22:50:41.666Z,61.32
2018-03-25T22:53:10.065Z,61.54
2018-03-25T22:55:38.470Z,61.33
2018-03-25T22:58:06.938Z,61.27
2018-03-25T23:00:35.362Z,61.66
2018-03-25T23:03:09.533Z,61.49
2018-03-25T23:05:37.937Z,61.64
2018-03-25T23:08:06.354Z,61.71
2018-03-25T23:10:34.829Z,62.13
2018-03-25T23:13:03.253Z,61.97
2018-03-25T23:15:31.669Z,61.87
2018-03-25T23:18:00.134Z,62.03
2018-03-25T23:20:28.545Z,62.18
2018-03-25T23:22:56.958Z,62.18
2018-03-25T23:25:25.406Z,62.34
2018-03-25T23:27:53.814Z,62.67
2018-03-25T23:30:22.213Z,62.10
2018-03-25T23:32:50.674Z,62.23
2018-03-25T23:35:19.085Z,62.55
2018-03-25T23:37:47.489Z,63.28
2018-03-25T23:40:15.938Z,64.63
2018-03-25T23:42:44.345Z,64.64
2018-03-25T23:45:12.762Z,65.03
2018-03-25T23:47:41.229Z,65.53
2018-03-25T23:50:09.634Z,65.54
2018-03-25T23:52:38.037Z,66.26
2018-03-25T23:55:06.509Z,66.13
2018-03-25T23:57:34.919Z,65.85
